createdAt,value
2023-04-02T00:01:19.451Z,94571.63
2023-04-02T00:04:22.766Z,94561.75
2023-04-02T00:06:55.345Z,94558.00
2023-04-02T00:09:34.289Z,94559.47
2023-04-02T00:12:19.842Z,94565.19
2023-04-02T00:14:58.587Z,94567.56
2023-04-02T00:17:29.208Z,94571.75
2023-04-02T00:20:06.506Z,94565.97
2023-04-02T00:22:36.555Z,94564.59
2023-04-02T00:25:16.778Z,94567.09
2023-04-02T00:27:47.046Z,94567.91
2023-04-02T00:30:17.337Z,94572.34
2023-04-02T00:32:49.204Z,94562.75
2023-04-02T00:35:26.284Z,94566.97
2023-04-02T00:37:57.152Z,94576.31
2023-04-02T00:40:33.285Z,94567.44
2023-04-02T00:43:04.592Z,94565.50
2023-04-02T00:45:39.980Z,94572.75
2023-04-02T00:48:29.706Z,94578.78
2023-04-02T00:51:04.142Z,94572.53
2023-04-02T00:53:35.553Z,94576.19
2023-04-02T00:56:19.512Z,94571.97
2023-04-02T00:58:56.038Z,94573.13
2023-04-02T01:01:28.750Z,94571.06
2023-04-02T01:04:03.899Z,94571.88
2023-04-02T01:06:38.735Z,94576.72
2023-04-02T01:09:26.713Z,94582.19
2023-04-02T01:12:26.692Z,94584.00
2023-04-02T01:15:12.067Z,94589.00
2023-04-02T01:18:09.803Z,94583.09
2023-04-02T01:21:02.042Z,94588.22
2023-04-02T01:23:42.198Z,94591.41
2023-04-02T01:26:26.434Z,94594.56
2023-04-02T01:29:12.006Z,94587.41
2023-04-02T01:31:44.309Z,94585.38
2023-04-02T01:34:18.700Z,94583.31
2023-04-02T01:37:11.880Z,94583.31
2023-04-02T01:40:11.709Z,94580.94
2023-04-02T01:42:55.216Z,94588.00
2023-04-02T01:45:29.266Z,94584.78
2023-04-02T01:48:00.001Z,94586.28
2023-04-02T01:50:37.207Z,94593.31
2023-04-02T01:53:11.503Z,94596.16
2023-04-02T01:55:47.474Z,94599.78
2023-04-02T01:58:25.288Z,94604.44
2023-04-02T02:01:06.121Z,94602.84
2023-04-02T02:03:37.911Z,94603.19
2023-04-02T02:06:09.590Z,94601.16
2023-04-02T02:08:44.022Z,94604.19
2023-04-02T02:11:18.477Z,94607.03
2023-04-02T02:13:50.338Z,94618.84
2023-04-02T02:16:24.408Z,94620.09
2023-04-02T02:18:59.148Z,94616.69
2023-04-02T02:21:41.609Z,94620.25
2023-04-02T02:24:22.777Z,94617.84
2023-04-02T02:27:05.035Z,94621.38
2023-04-02T02:29:41.179Z,94617.06
2023-04-02T02:32:17.441Z,94626.00
2023-04-02T02:35:03.470Z,94628.59
2023-04-02T02:37:43.117Z,94639.41
2023-04-02T02:40:23.281Z,94642.34
2023-04-02T02:43:00.132Z,94643.38
2023-04-02T02:45:38.061Z,94636.81
2023-04-02T02:48:17.890Z,94637.81
2023-04-02T02:50:48.650Z,94642.03
2023-04-02T02:53:23.342Z,94647.91
2023-04-02T02:56:02.134Z,94650.53
2023-04-02T02:58:39.066Z,94646.09
2023-04-02T03:01:20.160Z,94657.44
2023-04-02T03:03:57.494Z,94651.63
2023-04-02T03:06:29.054Z,94660.50
2023-04-02T03:09:20.914Z,94664.13
2023-04-02T03:11:59.049Z,94661.53
2023-04-02T03:14:37.735Z,94662.75
2023-04-02T03:17:21.046Z,94662.97
2023-04-02T03:20:01.850Z,94666.97
2023-04-02T03:22:39.779Z,94666.97
2023-04-02T03:25:27.750Z,94664.94
2023-04-02T03:28:05.605Z,94671.16
2023-04-02T03:30:45.362Z,94673.41
2023-04-02T03:33:24.386Z,94673.41
2023-04-02T03:36:06.732Z,94683.06
2023-04-02T03:38:46.467Z,94682.28
2023-04-02T03:41:24.229Z,94683.28
2023-04-02T03:43:59.342Z,94685.91
2023-04-02T03:46:38.378Z,94686.56
2023-04-02T03:49:16.960Z,94696.22
2023-04-02T03:51:57.850Z,94696.44
2023-04-02T03:54:28.444Z,94693.81
2023-04-02T03:56:59.988Z,94694.06
2023-04-02T03:59:41.622Z,94702.09
2023-04-02T04:02:28.347Z,94703.09
2023-04-02T04:05:00.951Z,94709.13
2023-04-02T04:07:39.781Z,94711.16
2023-04-02T04:10:19.791Z,94708.56
2023-04-02T04:12:53.307Z,94707.75
2023-04-02T04:15:32.151Z,94719.22
2023-04-02T04:18:11.046Z,94730.69
2023-04-02T04:20:56.667Z,94730.91
2023-04-02T04:23:37.538Z,94727.47
2023-04-02T04:26:25.409Z,94729.28
2023-04-02T04:29:16.529Z,94732.69
2023-04-02T04:31:51.059Z,94734.97
2023-04-02T04:34:31.983Z,94742.41
2023-04-02T04:37:08.099Z,94740.81
2023-04-02T04:39:52.507Z,94744.22
2023-04-02T04:42:27.175Z,94751.88
2023-04-02T04:45:06.180Z,94749.44
2023-04-02T04:47:42.400Z,94753.69
2023-04-02T04:50:20.850Z,94751.06
2023-04-02T04:52:51.655Z,94760.50
2023-04-02T04:55:33.099Z,94759.78
2023-04-02T04:58:14.388Z,94760.19
2023-04-02T05:01:02.690Z,94754.19
2023-04-02T05:03:41.176Z,94758.38
2023-04-02T05:06:18.957Z,94756.38
2023-04-02T05:08:54.541Z,94761.94
2023-04-02T05:11:35.182Z,94767.59
2023-04-02T05:14:19.402Z,94770.63
2023-04-02T05:16:59.620Z,94777.09
2023-04-02T05:19:38.284Z,94775.50
2023-04-02T05:22:22.048Z,94786.94
2023-04-02T05:25:05.874Z,94792.75
2023-04-02T05:27:49.342Z,94796.72
2023-04-02T05:30:56.799Z,94799.19
2023-04-02T05:33:31.046Z,94795.78
2023-04-02T05:36:08.850Z,94806.81
2023-04-02T05:38:49.220Z,94809.63
2023-04-02T05:41:31.387Z,94809.50
2023-04-02T05:44:18.687Z,94814.50
2023-04-02T05:46:57.600Z,94818.25
2023-04-02T05:49:39.239Z,94816.81
2023-04-02T05:52:20.586Z,94822.09
2023-04-02T05:54:57.827Z,94823.28
2023-04-02T05:57:45.850Z,94827.47
2023-04-02T06:00:45.781Z,94835.09
2023-04-02T06:03:28.533Z,94841.03
2023-04-02T06:06:07.196Z,94835.41
2023-04-02T06:08:45.861Z,94835.75
2023-04-02T06:11:25.220Z,94841.94
2023-04-02T06:13:56.658Z,94837.50
2023-04-02T06:16:36.957Z,94843.91
2023-04-02T06:19:18.271Z,94844.47
2023-04-02T06:24:28.961Z,94852.66
2023-04-02T06:27:08.122Z,94845.19
2023-04-02T06:29:44.146Z,94852.59
2023-04-02T06:32:27.141Z,94850.59
2023-04-02T06:34:58.268Z,94855.59
2023-04-02T06:37:36.175Z,94862.16
2023-04-02T06:40:44.692Z,94856.31
2023-04-02T06:43:36.293Z,94861.69
2023-04-02T06:46:46.511Z,94873.94
2023-04-02T06:49:28.174Z,94867.84
2023-04-02T06:52:11.556Z,94876.25
2023-04-02T06:54:41.850Z,94873.81
2023-04-02T06:57:16.195Z,94881.41
2023-04-02T06:59:48.881Z,94887.38
2023-04-02T07:02:37.025Z,94889.75
2023-04-02T07:05:13.094Z,94900.78
2023-04-02T07:07:48.358Z,94897.53
2023-04-02T07:10:20.500Z,94902.09
2023-04-02T07:12:51.661Z,94899.63
2023-04-02T07:15:25.940Z,94909.00
2023-04-02T07:17:59.367Z,94908.69
2023-04-02T07:20:37.650Z,94914.84
2023-04-02T07:23:10.833Z,94916.78
2023-04-02T07:25:41.137Z,94908.28
2023-04-02T07:28:11.169Z,94917.00
2023-04-02T07:30:41.225Z,94913.91
2023-04-02T07:33:16.772Z,94923.16
2023-04-02T07:35:50.561Z,94918.28
2023-04-02T07:38:21.946Z,94919.78
2023-04-02T07:40:52.148Z,94922.19
2023-04-02T07:43:23.272Z,94922.53
2023-04-02T07:45:53.689Z,94926.22
2023-04-02T07:48:23.788Z,94933.03
2023-04-02T07:50:56.645Z,94935.19
2023-04-02T07:53:32.384Z,94934.34
2023-04-02T07:56:04.189Z,94945.28
2023-04-02T07:58:36.339Z,94940.31
2023-04-02T08:01:06.307Z,94951.63
2023-04-02T08:03:36.483Z,94951.28
2023-04-02T08:06:09.540Z,94953.75
2023-04-02T08:08:39.603Z,94961.28
2023-04-02T08:11:09.823Z,94964.59
2023-04-02T08:13:40.695Z,94957.53
2023-04-02T08:16:11.849Z,94965.16
2023-04-02T08:18:42.402Z,94969.16
2023-04-02T08:21:16.482Z,94961.75
2023-04-02T08:23:47.358Z,94961.53
2023-04-02T08:26:21.291Z,94969.75
2023-04-02T08:28:51.704Z,94975.78
2023-04-02T08:31:21.909Z,94971.56
2023-04-02T08:33:51.871Z,94979.19
2023-04-02T08:36:32.037Z,94987.63
2023-04-02T08:39:02.180Z,94982.75
2023-04-02T08:41:33.387Z,94980.13
2023-04-02T08:44:18.908Z,94988.91
2023-04-02T08:46:55.108Z,94983.53
2023-04-02T08:49:34.003Z,94983.53
2023-04-02T08:52:06.916Z,94986.19
2023-04-02T08:54:44.081Z,94985.16
2023-04-02T08:57:29.253Z,94987.97
2023-04-02T09:00:10.945Z,94995.19
2023-04-02T09:02:47.026Z,94995.97
2023-04-02T09:05:25.046Z,95008.50
2023-04-02T09:08:02.299Z,95004.16
2023-04-02T09:10:42.635Z,95010.66
2023-04-02T09:13:23.402Z,95019.66
2023-04-02T09:15:59.263Z,95016.72
2023-04-02T09:18:32.851Z,95011.69
2023-04-02T09:21:17.545Z,95014.44
2023-04-02T09:23:50.901Z,95014.53
2023-04-02T09:26:26.006Z,95026.50
2023-04-02T09:29:08.402Z,95032.03
2023-04-02T09:31:46.138Z,95023.59
2023-04-02T09:34:35.054Z,95031.75
2023-04-02T09:37:12.039Z,95032.50
2023-04-02T09:39:45.076Z,95035.84
2023-04-02T09:42:38.298Z,95037.00
2023-04-02T09:45:17.896Z,95032.22
2023-04-02T09:47:48.076Z,95035.50
2023-04-02T09:50:29.772Z,95042.47
2023-04-02T09:53:00.253Z,95027.69
2023-04-02T09:55:34.940Z,95027.72
2023-04-02T09:58:16.703Z,95033.47
2023-04-02T10:00:55.356Z,95025.38
2023-04-02T10:03:29.714Z,95036.34
2023-04-02T10:06:12.134Z,95040.06
2023-04-02T10:08:44.676Z,95041.13
2023-04-02T10:11:24.314Z,95035.59
2023-04-02T10:14:02.273Z,95041.81
2023-04-02T10:16:37.981Z,95037.66
2023-04-02T10:19:18.586Z,95049.41
2023-04-02T10:21:52.961Z,95042.06
2023-04-02T10:24:23.378Z,95041.63
2023-04-02T10:27:10.541Z,95042.94
2023-04-02T10:30:06.084Z,95043.50
2023-04-02T10:32:45.860Z,95049.69
2023-04-02T10:35:36.296Z,95045.56
2023-04-02T10:38:34.169Z,95049.63
2023-04-02T10:41:19.008Z,95046.66
2023-04-02T10:44:13.168Z,95049.94
2023-04-02T10:47:05.281Z,95050.66
2023-04-02T10:49:44.859Z,95043.63
2023-04-02T10:52:22.901Z,95056.00
2023-04-02T10:54:55.956Z,95054.44
2023-04-02T10:57:37.032Z,95054.44
2023-04-02T11:00:22.677Z,95058.91
2023-04-02T11:02:59.316Z,95062.06
2023-04-02T11:05:40.508Z,95068.94
2023-04-02T11:08:21.539Z,95069.06
2023-04-02T11:10:58.487Z,95075.56
2023-04-02T11:13:35.897Z,95078.41
2023-04-02T11:16:10.112Z,95080.94
2023-04-02T11:18:40.226Z,95074.03
2023-04-02T11:21:11.685Z,95079.47
2023-04-02T11:23:59.329Z,95081.97
2023-04-02T11:26:47.522Z,95086.03
2023-04-02T11:29:26.375Z,95082.72
2023-04-02T11:32:29.995Z,95085.72
2023-04-02T11:35:07.425Z,95086.41
2023-04-02T11:37:41.222Z,95083.31
2023-04-02T11:40:41.623Z,95090.88
2023-04-02T11:43:41.648Z,95089.50
2023-04-02T11:46:41.835Z,95101.59
2023-04-02T11:49:59.199Z,95093.88
2023-04-02T11:52:34.039Z,95089.91
2023-04-02T11:55:19.409Z,95094.34
2023-04-02T11:58:21.265Z,95095.03
2023-04-02T12:01:30.232Z,95096.63
2023-04-02T12:04:53.127Z,95094.94
2023-04-02T12:07:52.459Z,95095.81
2023-04-02T12:10:25.672Z,95099.59
2023-04-02T12:12:55.857Z,95095.25
2023-04-02T12:15:37.240Z,95111.41
2023-04-02T12:18:18.739Z,95107.50
2023-04-02T12:20:55.197Z,95113.81
2023-04-02T12:23:32.727Z,95116.16
2023-04-02T12:26:06.834Z,95113.50
2023-04-02T12:28:38.327Z,95109.69
2023-04-02T12:31:17.887Z,95114.91
2023-04-02T12:33:48.998Z,95114.72
2023-04-02T12:36:23.859Z,95112.22
2023-04-02T12:38:58.389Z,95119.00
2023-04-02T12:41:32.308Z,95118.69
2023-04-02T12:44:04.845Z,95119.34
2023-04-02T12:46:37.774Z,95123.72
2023-04-02T12:49:10.492Z,95113.13
2023-04-02T12:51:41.675Z,95115.22
2023-04-02T12:54:20.959Z,95117.09
2023-04-02T12:56:52.548Z,95121.88
2023-04-02T12:59:32.311Z,95126.56
2023-04-02T13:02:04.462Z,95124.06
2023-04-02T13:04:34.613Z,95132.66
2023-04-02T13:07:05.116Z,95130.25
2023-04-02T13:09:47.721Z,95127.34
2023-04-02T13:12:35.595Z,95125.09
2023-04-02T13:15:08.750Z,95129.94
2023-04-02T13:17:44.935Z,95121.09
2023-04-02T13:20:32.484Z,95129.59
2023-04-02T13:23:05.607Z,95124.88
2023-04-02T13:25:40.186Z,95135.19
2023-04-02T13:28:12.911Z,95129.91
2023-04-02T13:30:43.045Z,95135.66
2023-04-02T13:33:13.418Z,95138.66
2023-04-02T13:35:43.734Z,95138.09
2023-04-02T13:38:14.222Z,95138.28
2023-04-02T13:40:47.161Z,95142.44
2023-04-02T13:43:22.024Z,95144.59
2023-04-02T13:45:55.894Z,95144.56
2023-04-02T13:48:29.220Z,95148.13
2023-04-02T13:50:59.164Z,95153.56
2023-04-02T13:53:36.744Z,95154.13
2023-04-02T13:56:10.273Z,95160.59
2023-04-02T13:58:40.887Z,95159.13
2023-04-02T14:01:12.247Z,95162.84
2023-04-02T14:03:44.023Z,95166.47
2023-04-02T14:06:22.960Z,95171.19
2023-04-02T14:09:05.839Z,95172.13
2023-04-02T14:11:53.727Z,95173.50
2023-04-02T14:14:45.788Z,95180.50
2023-04-02T14:17:28.418Z,95182.59
2023-04-02T14:20:18.224Z,95183.81
2023-04-02T14:23:06.486Z,95190.22
2023-04-02T14:25:51.502Z,95192.41
2023-04-02T14:28:38.272Z,95194.13
2023-04-02T14:31:21.610Z,95200.78
2023-04-02T14:34:05.492Z,95196.91
2023-04-02T14:36:56.545Z,95201.78
2023-04-02T14:39:40.977Z,95202.94
2023-04-02T14:42:18.936Z,95195.97
2023-04-02T14:45:01.982Z,95197.81
2023-04-02T14:47:40.099Z,95203.41
2023-04-02T14:50:16.861Z,95209.19
2023-04-02T14:52:54.018Z,95218.97
2023-04-02T14:55:36.525Z,95228.53
2023-04-02T14:58:13.531Z,95231.59
2023-04-02T15:00:54.817Z,95230.75
2023-04-02T15:03:28.118Z,95237.03
2023-04-02T15:06:03.153Z,95238.50
2023-04-02T15:08:39.385Z,95237.56
2023-04-02T15:11:18.227Z,95241.22
2023-04-02T15:13:56.346Z,95239.50
2023-04-02T15:16:29.769Z,95240.94
2023-04-02T15:19:02.838Z,95247.44
2023-04-02T15:21:57.552Z,95246.28
2023-04-02T15:24:37.948Z,95249.69
2023-04-02T15:27:26.202Z,95252.13
2023-04-02T15:30:06.468Z,95248.06
2023-04-02T15:32:43.713Z,95248.88
2023-04-02T15:35:27.980Z,95248.16
2023-04-02T15:38:05.752Z,95249.25
2023-04-02T15:40:48.855Z,95250.69
2023-04-02T15:43:27.737Z,95253.53
2023-04-02T15:46:15.686Z,95262.19
2023-04-02T15:49:16.310Z,95269.84
2023-04-02T15:52:08.489Z,95263.88
2023-04-02T15:54:58.737Z,95272.63
2023-04-02T15:57:58.757Z,95279.03
2023-04-02T16:00:31.466Z,95286.59
2023-04-02T16:03:47.933Z,95285.81
2023-04-02T16:06:30.145Z,95293.34
2023-04-02T16:09:10.594Z,95292.09
2023-04-02T16:11:40.679Z,95295.81
2023-04-02T16:14:25.374Z,95305.19
2023-04-02T16:17:08.070Z,95309.66
2023-04-02T16:19:50.571Z,95320.56
2023-04-02T16:22:28.459Z,95321.06
2023-04-02T16:25:04.337Z,95323.34
2023-04-02T16:27:41.210Z,95333.13
2023-04-02T16:30:44.042Z,95331.31
2023-04-02T16:33:28.697Z,95338.44
2023-04-02T16:36:24.307Z,95349.34
2023-04-02T16:39:05.058Z,95335.03
2023-04-02T16:41:50.867Z,95357.19
2023-04-02T16:44:36.352Z,95355.66
2023-04-02T16:47:24.978Z,95359.72
2023-04-02T16:50:03.779Z,95370.50
2023-04-02T16:52:50.618Z,95371.16
2023-04-02T16:55:37.744Z,95369.34
2023-04-02T16:58:26.393Z,95370.78
2023-04-02T17:01:02.554Z,95378.66
2023-04-02T17:03:53.878Z,95376.50
2023-04-02T17:06:41.810Z,95382.34
2023-04-02T17:09:32.476Z,95388.16
2023-04-02T17:12:17.518Z,95390.44
2023-04-02T17:14:56.256Z,95394.53
2023-04-02T17:17:28.713Z,95394.56
2023-04-02T17:20:02.881Z,95404.66
2023-04-02T17:22:34.836Z,95406.88
2023-04-02T17:25:08.403Z,95411.34
2023-04-02T17:27:46.367Z,95420.41
2023-04-02T17:30:21.387Z,95422.44
2023-04-02T17:32:51.894Z,95431.94
2023-04-02T17:35:34.918Z,95430.19
2023-04-02T17:38:16.885Z,95441.03
2023-04-02T17:41:02.279Z,95439.44
2023-04-02T17:43:48.302Z,95449.31
2023-04-02T17:46:30.070Z,95453.94
2023-04-02T17:49:11.307Z,95461.75
2023-04-02T17:51:46.976Z,95459.53
2023-04-02T17:54:34.006Z,95469.97
2023-04-02T17:57:26.803Z,95472.22
2023-04-02T18:00:17.301Z,95475.22
2023-04-02T18:03:12.768Z,95485.47
2023-04-02T18:05:53.308Z,95486.66
2023-04-02T18:08:34.261Z,95490.47
2023-04-02T18:11:13.330Z,95494.09
2023-04-02T18:13:51.869Z,95495.91
2023-04-02T18:16:44.416Z,95510.56
2023-04-02T18:19:26.025Z,95513.75
2023-04-02T18:22:10.866Z,95527.41
2023-04-02T18:24:55.347Z,95525.78
2023-04-02T18:27:56.836Z,95540.94
2023-04-02T18:30:34.644Z,95533.34
2023-04-02T18:33:38.520Z,95545.78
2023-04-02T18:36:23.113Z,95552.97
2023-04-02T18:39:05.173Z,95550.75
2023-04-02T18:41:49.135Z,95559.94
2023-04-02T18:44:36.967Z,95564.13
2023-04-02T18:47:20.096Z,95568.81
2023-04-02T18:50:13.858Z,95570.00
2023-04-02T18:52:44.598Z,95575.56
2023-04-02T18:55:21.642Z,95577.75
2023-04-02T18:57:55.990Z,95588.38
2023-04-02T19:00:33.980Z,95588.59
2023-04-02T19:03:13.109Z,95593.97
2023-04-02T19:05:54.105Z,95598.09
2023-04-02T19:08:32.115Z,95599.00
2023-04-02T19:11:07.114Z,95611.69
2023-04-02T19:13:37.817Z,95610.09
2023-04-02T19:16:43.906Z,95613.38
2023-04-02T19:19:23.006Z,95616.25
2023-04-02T19:22:14.033Z,95621.47
2023-04-02T19:25:01.322Z,95622.41
2023-04-02T19:27:39.877Z,95633.38
2023-04-02T19:30:35.109Z,95641.44
2023-04-02T19:33:20.996Z,95648.19
2023-04-02T19:36:00.293Z,95651.16
2023-04-02T19:38:52.378Z,95654.63
2023-04-02T19:41:33.139Z,95662.28
2023-04-02T19:44:05.125Z,95662.69
2023-04-02T19:46:35.712Z,95669.53
2023-04-02T19:49:12.726Z,95667.09
2023-04-02T19:51:43.726Z,95676.09
2023-04-02T19:54:16.551Z,95678.06
2023-04-02T19:56:47.712Z,95685.88
2023-04-02T19:59:18.955Z,95671.91
2023-04-02T20:01:50.108Z,95683.47
2023-04-02T20:04:23.471Z,95681.06
2023-04-02T20:06:54.525Z,95686.81
2023-04-02T20:09:27.888Z,95697.78
2023-04-02T20:12:01.217Z,95693.31
2023-04-02T20:14:31.229Z,95701.75
2023-04-02T20:17:02.143Z,95699.69
2023-04-02T20:19:32.314Z,95706.03
2023-04-02T20:22:02.902Z,95706.53
2023-04-02T20:24:36.743Z,95715.69
2023-04-02T20:27:07.010Z,95718.47
2023-04-02T20:29:37.148Z,95728.00
2023-04-02T20:32:07.594Z,95729.41
2023-04-02T20:34:38.712Z,95729.88
2023-04-02T20:37:08.774Z,95735.06
2023-04-02T20:39:41.983Z,95730.66
2023-04-02T20:42:13.459Z,95734.91
2023-04-02T20:44:43.679Z,95736.53
2023-04-02T20:47:13.621Z,95740.47
2023-04-02T20:49:44.001Z,95742.97
2023-04-02T20:52:14.104Z,95747.56
2023-04-02T20:54:46.896Z,95754.09
2023-04-02T20:57:19.769Z,95757.69
2023-04-02T20:59:55.148Z,95760.28
2023-04-02T21:02:25.461Z,95769.81
2023-04-02T21:04:56.559Z,95768.81
2023-04-02T21:07:27.141Z,95776.81
2023-04-02T21:09:59.936Z,95780.84
2023-04-02T21:12:31.037Z,95787.41
2023-04-02T21:15:02.749Z,95778.41
2023-04-02T21:17:33.718Z,95784.97
2023-04-02T21:20:05.616Z,95792.50
2023-04-02T21:22:37.392Z,95786.84
2023-04-02T21:25:11.517Z,95793.22
2023-04-02T21:27:43.254Z,95791.84
2023-04-02T21:30:17.216Z,95794.72
2023-04-02T21:32:47.862Z,95799.66
2023-04-02T21:35:20.243Z,95806.03
2023-04-02T21:37:56.283Z,95806.44
2023-04-02T21:40:33.320Z,95812.13
2023-04-02T21:43:03.597Z,95808.19
2023-04-02T21:45:33.764Z,95811.31
2023-04-02T21:48:03.933Z,95807.28
2023-04-02T21:50:34.179Z,95810.72
2023-04-02T21:53:04.357Z,95814.50
2023-04-02T21:55:36.934Z,95817.91
2023-04-02T21:58:07.307Z,95818.47
2023-04-02T22:00:37.720Z,95822.38
2023-04-02T22:03:13.577Z,95823.38
2023-04-02T22:05:46.545Z,95829.09
2023-04-02T22:08:16.537Z,95832.78
2023-04-02T22:10:49.314Z,95843.84
2023-04-02T22:13:19.310Z,95832.16
2023-04-02T22:15:49.233Z,95837.66
2023-04-02T22:18:19.478Z,95841.13
2023-04-02T22:20:49.512Z,95842.19
2023-04-02T22:23:20.592Z,95852.53
2023-04-02T22:25:53.334Z,95855.28
2023-04-02T22:28:24.396Z,95857.53
2023-04-02T22:30:54.647Z,95858.69
2023-04-02T22:33:27.416Z,95866.03
2023-04-02T22:35:57.372Z,95869.13
2023-04-02T22:38:27.880Z,95870.75
2023-04-02T22:41:10.027Z,95865.06
2023-04-02T22:43:40.786Z,95868.09
2023-04-02T22:46:14.023Z,95873.00
2023-04-02T22:48:45.298Z,95860.06
2023-04-02T22:51:17.905Z,95869.19
2023-04-02T22:53:48.404Z,95866.47
2023-04-02T22:56:24.449Z,95869.06
2023-04-02T22:58:54.697Z,95865.66
2023-04-02T23:01:28.967Z,95873.13
2023-04-02T23:03:59.386Z,95871.00
2023-04-02T23:06:30.242Z,95873.94
2023-04-02T23:09:00.774Z,95878.97
2023-04-02T23:11:33.462Z,95878.50
2023-04-02T23:14:03.468Z,95874.75
2023-04-02T23:16:33.578Z,95878.66
2023-04-02T23:19:04.056Z,95868.44
2023-04-02T23:21:34.037Z,95880.59
2023-04-02T23:24:04.085Z,95869.91
2023-04-02T23:26:36.700Z,95878.66
2023-04-02T23:29:06.977Z,95867.31
2023-04-02T23:31:37.411Z,95874.44
2023-04-02T23:34:07.422Z,95871.88
2023-04-02T23:36:38.227Z,95872.84
2023-04-02T23:39:10.918Z,95873.53
2023-04-02T23:41:45.443Z,95873.53
2023-04-02T23:44:15.647Z,95866.09
2023-04-02T23:46:45.977Z,95864.94
2023-04-02T23:49:16.670Z,95864.31
2023-04-02T23:51:46.793Z,95861.72
2023-04-02T23:54:17.855Z,95866.44
2023-04-02T23:56:50.628Z,95867.56
2023-04-02T23:59:20.709Z,95861.25
